Time;durP1;ratioP1;P1;durP2;ratioP2;P2;SDS_P1;SDS_P2;PMS_P1;PMS_P2;Temp;Humidity;BMP_temperature;BMP_pressure;BME280_temperature;BME280_humidity;BME280_pressure;Samples;Min_cycle;Max_cycle;Signal;HPM_P1;HPM_P2
2023/09/03 00:00:47;;;;;;;;;;;18.80;99.90;;;;;;5095916;28;19908;-79
2023/09/03 00:03:12;;;;;;;;;;;18.80;99.90;;;;;;5095759;28;19908;-79
2023/09/03 00:05:46;;;;;;;;;;;18.90;99.90;;;;;;5086415;28;19905;-76
2023/09/03 00:08:11;;;;;;;;;;;18.90;99.90;;;;;;5094359;28;20024;-77
2023/09/03 00:10:37;;;;;;;;;;;18.90;99.90;;;;;;5084382;28;19904;-80
2023/09/03 00:13:03;;;;;;;;;;;18.90;99.90;;;;;;5094153;28;19955;-79
2023/09/03 00:15:28;;;;;;;;;;;18.90;99.90;;;;;;5095713;28;19904;-77
2023/09/03 00:17:54;;;;;;;;;;;18.90;99.90;;;;;;5093826;28;20395;-78
2023/09/03 00:20:19;;;;;;;;;;;18.90;99.90;;;;;;5094447;28;20367;-78
2023/09/03 00:22:45;;;;;;;;;;;18.80;99.90;;;;;;5093820;28;19904;-76
2023/09/03 00:25:10;;;;;;;;;;;18.80;99.90;;;;;;5095487;28;19930;-79
2023/09/03 00:27:36;;;;;;;;;;;18.80;99.90;;;;;;5093830;28;19915;-76
2023/09/03 00:30:02;;;;;;;;;;;18.70;99.90;;;;;;5095671;28;19904;-77
2023/09/03 00:32:27;;;;;;;;;;;18.70;99.90;;;;;;5095054;28;19908;-76
2023/09/03 00:34:53;;;;;;;;;;;18.70;99.90;;;;;;5095387;28;19914;-77
2023/09/03 00:37:18;;;;;;;;;;;18.70;99.90;;;;;;5095311;28;19911;-76
2023/09/03 00:39:43;;;;;;;;;;;18.70;99.90;;;;;;5095559;28;19907;-77
2023/09/03 00:42:09;;;;;;;;;;;18.70;99.90;;;;;;5095243;28;19908;-78
2023/09/03 00:44:35;;;;;;;;;;;18.80;99.90;;;;;;5098017;28;20288;-76
2023/09/03 00:47:00;;;;;;;;;;;18.70;99.90;;;;;;5098833;28;19908;-76
2023/09/03 00:49:26;;;;;;;;;;;18.70;99.90;;;;;;5097590;28;19957;-76
2023/09/03 00:51:53;;;;;;;;;;;18.70;99.90;;;;;;5097884;28;20016;-76
2023/09/03 00:54:22;;;;;;;;;;;18.70;99.90;;;;;;5095108;28;19904;-75
2023/09/03 00:56:49;;;;;;;;;;;18.70;99.90;;;;;;5098681;28;19911;-77
2023/09/03 00:59:15;;;;;;;;;;;18.60;99.90;;;;;;5099050;28;19908;-76
2023/09/03 01:01:41;;;;;;;;;;;18.70;99.90;;;;;;5098890;28;19911;-77
2023/09/03 01:04:07;;;;;;;;;;;18.60;99.90;;;;;;5098837;28;19908;-76
2023/09/03 01:06:32;;;;;;;;;;;18.60;99.90;;;;;;5098522;28;19904;-77
2023/09/03 01:08:58;;;;;;;;;;;18.60;99.90;;;;;;5097344;28;19936;-77
2023/09/03 01:11:28;;;;;;;;;;;18.70;99.90;;;;;;5098723;28;20439;-78
2023/09/03 01:14:01;;;;;;;;;;;18.70;99.90;;;;;;5098618;28;19908;-78
2023/09/03 01:16:30;;;;;;;;;;;18.80;99.90;;;;;;5098722;28;19904;-77
2023/09/03 01:18:56;;;;;;;;;;;18.80;99.90;;;;;;5098477;28;20013;-75
2023/09/03 01:21:22;;;;;;;;;;;18.90;99.90;;;;;;5092915;28;20291;-75
2023/09/03 01:24:06;;;;;;;;;;;18.80;99.90;;;;;;5081711;28;19908;-76
2023/09/03 01:26:38;;;;;;;;;;;18.90;99.90;;;;;;5086797;28;19904;-75
2023/09/03 01:29:04;;;;;;;;;;;18.80;99.90;;;;;;5098279;28;20338;-77
2023/09/03 01:31:30;;;;;;;;;;;18.90;99.90;;;;;;5098563;28;19911;-76
2023/09/03 01:34:02;;;;;;;;;;;18.90;99.90;;;;;;5098073;28;19904;-76
2023/09/03 01:36:28;;;;;;;;;;;18.80;99.90;;;;;;5098344;28;19949;-77
2023/09/03 01:38:54;;;;;;;;;;;18.80;99.90;;;;;;5098316;28;19915;-82
2023/09/03 01:41:19;;;;;;;;;;;18.80;99.90;;;;;;5096899;28;19908;-77
2023/09/03 01:43:45;;;;;;;;;;;18.80;99.90;;;;;;5096720;28;19908;-77
2023/09/03 01:46:24;;;;;;;;;;;18.80;99.90;;;;;;5098280;28;19919;-74
2023/09/03 01:48:59;;;;;;;;;;;18.80;99.90;;;;;;5100329;28;19964;-77
2023/09/03 01:51:27;;;;;;;;;;;18.80;99.90;;;;;;5099414;28;19904;-76
2023/09/03 01:54:00;;;;;;;;;;;18.80;99.90;;;;;;5095221;28;19904;-77
2023/09/03 01:56:29;;;;;;;;;;;18.80;99.90;;;;;;5097250;28;19908;-76
2023/09/03 01:58:56;;;;;;;;;;;18.80;99.90;;;;;;5095412;28;19987;-76
2023/09/03 02:01:22;;;;;;;;;;;18.90;99.90;;;;;;5097771;28;19914;-75
2023/09/03 02:03:47;;;;;;;;;;;18.80;99.90;;;;;;5097834;28;19986;-77
2023/09/03 02:06:13;;;;;;;;;;;18.80;99.90;;;;;;5094366;28;19904;-76
2023/09/03 02:08:38;;;;;;;;;;;18.80;99.90;;;;;;5097599;28;19908;-76
2023/09/03 02:11:04;;;;;;;;;;;18.70;99.90;;;;;;5097681;28;20273;-77
2023/09/03 02:13:29;;;;;;;;;;;18.70;99.90;;;;;;5097754;28;19907;-76
2023/09/03 02:15:56;;;;;;;;;;;18.60;99.90;;;;;;5082855;28;19927;-77
2023/09/03 02:18:22;;;;;;;;;;;18.70;99.90;;;;;;5097181;28;20386;-76
2023/09/03 02:20:47;;;;;;;;;;;18.60;99.90;;;;;;5093507;28;19912;-75
2023/09/03 02:23:13;;;;;;;;;;;18.60;99.90;;;;;;5075583;28;20295;-76
2023/09/03 02:25:38;;;;;;;;;;;18.60;99.90;;;;;;5097056;28;19991;-75
2023/09/03 02:28:06;;;;;;;;;;;18.50;99.90;;;;;;5097313;28;19977;-76
2023/09/03 02:30:32;;;;;;;;;;;18.50;99.90;;;;;;5096912;28;19963;-76
2023/09/03 02:32:58;;;;;;;;;;;18.50;99.90;;;;;;5097128;28;20333;-76
2023/09/03 02:35:23;;;;;;;;;;;18.50;99.90;;;;;;5095595;28;20330;-75
2023/09/03 02:37:49;;;;;;;;;;;18.40;99.90;;;;;;5097075;28;19912;-75
2023/09/03 02:40:14;;;;;;;;;;;18.40;99.90;;;;;;5095598;28;19908;-76
2023/09/03 02:42:40;;;;;;;;;;;18.40;99.90;;;;;;5097056;28;20454;-76
2023/09/03 02:45:06;;;;;;;;;;;18.40;99.90;;;;;;5096546;28;19916;-77
2023/09/03 02:47:31;;;;;;;;;;;18.40;99.90;;;;;;5096877;28;20396;-76
2023/09/03 02:49:57;;;;;;;;;;;18.40;99.90;;;;;;5096626;28;19999;-76
2023/09/03 02:52:22;;;;;;;;;;;18.30;99.90;;;;;;5097045;28;19998;-76
2023/09/03 02:54:48;;;;;;;;;;;18.40;99.90;;;;;;5093492;28;19911;-76
2023/09/03 02:57:13;;;;;;;;;;;18.30;99.90;;;;;;5096779;28;19915;-77
2023/09/03 02:59:42;;;;;;;;;;;18.30;99.90;;;;;;5096298;28;19943;-76
2023/09/03 03:02:07;;;;;;;;;;;18.20;99.90;;;;;;5096419;28;19900;-76
2023/09/03 03:04:33;;;;;;;;;;;18.20;99.90;;;;;;5094923;28;19915;-77
2023/09/03 03:06:58;;;;;;;;;;;18.10;99.90;;;;;;5095178;28;19908;-77
2023/09/03 03:09:24;;;;;;;;;;;18.10;99.90;;;;;;5096319;28;19904;-78
2023/09/03 03:11:49;;;;;;;;;;;18.10;99.90;;;;;;5096423;28;19908;-77
2023/09/03 03:14:15;;;;;;;;;;;18.10;99.90;;;;;;5096193;28;19910;-78
2023/09/03 03:16:40;;;;;;;;;;;18.00;99.90;;;;;;5096359;28;19912;-77
2023/09/03 03:19:06;;;;;;;;;;;18.00;99.90;;;;;;5095003;28;19946;-77
2023/09/03 03:21:31;;;;;;;;;;;18.00;99.90;;;;;;5093140;28;19908;-76
2023/09/03 03:23:57;;;;;;;;;;;17.90;99.90;;;;;;5096157;28;19903;-76
2023/09/03 03:26:22;;;;;;;;;;;17.90;99.90;;;;;;5096502;28;19905;-76
2023/09/03 03:28:49;;;;;;;;;;;17.80;99.90;;;;;;5096049;28;19908;-76
2023/09/03 03:31:15;;;;;;;;;;;17.70;99.90;;;;;;5096508;28;19991;-77
2023/09/03 03:33:41;;;;;;;;;;;17.70;99.90;;;;;;5082481;28;19904;-78
2023/09/03 03:36:07;;;;;;;;;;;17.70;99.90;;;;;;5096195;28;19947;-76
2023/09/03 03:38:33;;;;;;;;;;;17.80;99.90;;;;;;5096025;28;19911;-77
2023/09/03 03:41:18;;;;;;;;;;;17.80;99.90;;;;;;5096234;28;19912;-76
2023/09/03 03:43:45;;;;;;;;;;;17.70;99.90;;;;;;5092775;28;19995;-76
2023/09/03 03:46:13;;;;;;;;;;;17.70;99.90;;;;;;5095813;28;19949;-77
2023/09/03 03:48:39;;;;;;;;;;;17.70;99.90;;;;;;5094283;28;19930;-77
2023/09/03 03:51:05;;;;;;;;;;;17.60;99.90;;;;;;5096072;28;20371;-78
2023/09/03 03:53:30;;;;;;;;;;;17.60;99.90;;;;;;5092189;28;19904;-77
2023/09/03 03:55:57;;;;;;;;;;;17.60;99.90;;;;;;5095789;28;20395;-77
2023/09/03 03:58:22;;;;;;;;;;;17.60;99.90;;;;;;5095639;28;19919;-77
2023/09/03 04:00:48;;;;;;;;;;;17.60;99.90;;;;;;5096013;28;19905;-77
2023/09/03 04:03:13;;;;;;;;;;;17.60;99.90;;;;;;5090273;28;20372;-76
2023/09/03 04:05:39;;;;;;;;;;;17.50;99.90;;;;;;5095652;28;19912;-76
2023/09/03 04:08:04;;;;;;;;;;;17.40;99.90;;;;;;5095693;28;19954;-76
2023/09/03 04:10:30;;;;;;;;;;;17.40;99.90;;;;;;5094004;28;19912;-76
2023/09/03 04:12:56;;;;;;;;;;;17.30;99.90;;;;;;5092397;28;19904;-76
2023/09/03 04:15:21;;;;;;;;;;;17.30;99.90;;;;;;5095839;28;19951;-76
2023/09/03 04:17:47;;;;;;;;;;;17.20;99.90;;;;;;5095813;28;19908;-76
2023/09/03 04:20:13;;;;;;;;;;;17.10;99.90;;;;;;5099138;28;19908;-76
2023/09/03 04:22:38;;;;;;;;;;;17.10;99.90;;;;;;5096391;28;19915;-76
2023/09/03 04:25:05;;;;;;;;;;;17.10;99.90;;;;;;5098011;28;19904;-77
2023/09/03 04:27:31;;;;;;;;;;;17.10;99.90;;;;;;5099676;28;19908;-78
2023/09/03 04:29:56;;;;;;;;;;;17.00;99.90;;;;;;5098155;28;19911;-77
2023/09/03 04:32:22;;;;;;;;;;;17.00;99.90;;;;;;5098483;28;20268;-77
2023/09/03 04:34:47;;;;;;;;;;;17.00;99.90;;;;;;5099587;28;21265;-78
2023/09/03 04:37:13;;;;;;;;;;;17.00;99.90;;;;;;5099393;28;19973;-77
2023/09/03 04:39:38;;;;;;;;;;;17.00;99.90;;;;;;5090984;28;19908;-77
2023/09/03 04:42:04;;;;;;;;;;;17.00;99.90;;;;;;5099257;28;19908;-77
2023/09/03 04:44:30;;;;;;;;;;;16.90;99.90;;;;;;5098911;28;19911;-77
2023/09/03 04:46:56;;;;;;;;;;;16.90;99.90;;;;;;5099464;28;20303;-78
2023/09/03 04:49:21;;;;;;;;;;;16.90;99.90;;;;;;5097593;28;20292;-78
2023/09/03 04:51:47;;;;;;;;;;;16.80;99.90;;;;;;5087151;28;19962;-78
2023/09/03 04:54:12;;;;;;;;;;;16.80;99.90;;;;;;5095065;28;19904;-78
2023/09/03 04:56:38;;;;;;;;;;;16.80;99.90;;;;;;5098796;28;19904;-78
2023/09/03 04:59:03;;;;;;;;;;;16.80;99.90;;;;;;5098704;28;19911;-78
2023/09/03 05:01:29;;;;;;;;;;;16.70;99.90;;;;;;5099133;28;20002;-78
2023/09/03 05:03:54;;;;;;;;;;;16.80;99.90;;;;;;5098767;28;19908;-78
2023/09/03 05:06:20;;;;;;;;;;;16.70;99.90;;;;;;5098776;28;19950;-78
2023/09/03 05:08:47;;;;;;;;;;;16.70;99.90;;;;;;5099069;28;19954;-78
2023/09/03 05:11:12;;;;;;;;;;;16.70;99.90;;;;;;5098531;28;19904;-78
2023/09/03 05:13:38;;;;;;;;;;;16.70;99.90;;;;;;5098703;28;19911;-78
2023/09/03 05:16:04;;;;;;;;;;;16.80;99.90;;;;;;5098657;28;19904;-78
2023/09/03 05:18:30;;;;;;;;;;;16.80;99.90;;;;;;5098558;28;19916;-79
2023/09/03 05:20:56;;;;;;;;;;;16.80;99.90;;;;;;5095696;28;19904;-78
2023/09/03 05:23:22;;;;;;;;;;;16.90;99.90;;;;;;5098608;28;20399;-82
2023/09/03 05:25:47;;;;;;;;;;;17.00;99.90;;;;;;5097100;28;19908;-79
2023/09/03 05:28:13;;;;;;;;;;;17.30;99.90;;;;;;5097172;28;19904;-79
2023/09/03 05:30:38;;;;;;;;;;;17.50;99.90;;;;;;5097612;28;19943;-77
2023/09/03 05:33:04;;;;;;;;;;;17.60;99.90;;;;;;5086531;28;19912;-81
2023/09/03 05:35:30;;;;;;;;;;;17.70;99.90;;;;;;5082856;28;19960;-79
2023/09/03 05:37:55;;;;;;;;;;;17.90;99.90;;;;;;5098307;28;19918;-84
2023/09/03 05:40:21;;;;;;;;;;;17.90;99.90;;;;;;5096670;28;19904;-80
2023/09/03 05:42:47;;;;;;;;;;;18.00;99.90;;;;;;5097937;28;20364;-78
2023/09/03 05:45:13;;;;;;;;;;;18.20;99.90;;;;;;5097630;28;19976;-78
2023/09/03 05:47:38;;;;;;;;;;;18.30;99.90;;;;;;5098021;28;19904;-79
2023/09/03 05:50:06;;;;;;;;;;;18.40;99.90;;;;;;5098143;28;20696;-84
2023/09/03 05:52:31;;;;;;;;;;;18.50;99.90;;;;;;5096748;28;20101;-78
2023/09/03 05:54:57;;;;;;;;;;;18.60;99.90;;;;;;5090113;28;19908;-81
2023/09/03 05:57:23;;;;;;;;;;;18.60;99.90;;;;;;5098952;28;20338;-81
2023/09/03 05:59:50;;;;;;;;;;;18.60;99.90;;;;;;5094456;28;19904;-82
2023/09/03 06:02:16;;;;;;;;;;;18.70;99.90;;;;;;5080673;28;19908;-80
2023/09/03 06:04:42;;;;;;;;;;;18.70;99.90;;;;;;5091690;28;19904;-81
2023/09/03 06:07:09;;;;;;;;;;;18.80;99.90;;;;;;5087334;28;19904;-81
2023/09/03 06:09:35;;;;;;;;;;;18.80;99.90;;;;;;5082074;28;20391;-82
2023/09/03 06:12:01;;;;;;;;;;;18.80;99.90;;;;;;5081458;28;19938;-79
2023/09/03 06:14:26;;;;;;;;;;;18.90;99.90;;;;;;5091786;28;19935;-80
2023/09/03 06:16:53;;;;;;;;;;;18.90;99.90;;;;;;5094686;28;19972;-79
2023/09/03 06:19:20;;;;;;;;;;;18.90;99.90;;;;;;5090319;28;19911;-81
2023/09/03 06:21:46;;;;;;;;;;;18.90;99.90;;;;;;5089487;28;19904;-80
2023/09/03 06:24:12;;;;;;;;;;;18.90;99.90;;;;;;5097471;28;19957;-78
2023/09/03 06:26:38;;;;;;;;;;;19.00;99.90;;;;;;5097400;28;19911;-77
2023/09/03 06:29:03;;;;;;;;;;;19.00;99.90;;;;;;5086495;28;19955;-82
2023/09/03 06:31:29;;;;;;;;;;;19.00;99.90;;;;;;5097161;28;19908;-79
2023/09/03 06:33:54;;;;;;;;;;;19.10;99.90;;;;;;5096907;28;20012;-82
2023/09/03 06:36:20;;;;;;;;;;;19.10;99.90;;;;;;5095004;28;19943;-81
2023/09/03 06:38:46;;;;;;;;;;;19.10;99.90;;;;;;5097478;28;20443;-79
2023/09/03 06:41:12;;;;;;;;;;;19.10;99.90;;;;;;5097268;28;19974;-78
2023/09/03 06:43:38;;;;;;;;;;;19.20;99.90;;;;;;5095896;28;19915;-80
2023/09/03 06:46:03;;;;;;;;;;;19.20;99.90;;;;;;5084298;28;19916;-82
2023/09/03 06:48:29;;;;;;;;;;;19.20;99.90;;;;;;5083616;28;19961;-79
2023/09/03 06:50:56;;;;;;;;;;;19.30;99.90;;;;;;5097089;28;19915;-82
2023/09/03 06:53:21;;;;;;;;;;;19.40;99.90;;;;;;5090059;28;20477;-82
2023/09/03 06:55:47;;;;;;;;;;;19.40;99.90;;;;;;5096774;28;19912;-82
2023/09/03 06:58:13;;;;;;;;;;;19.50;99.90;;;;;;5092036;28;19912;-80
2023/09/03 07:00:38;;;;;;;;;;;19.50;99.90;;;;;;5086528;28;19904;-81
2023/09/03 07:03:04;;;;;;;;;;;19.60;99.90;;;;;;5082899;28;19911;-79
2023/09/03 07:05:29;;;;;;;;;;;19.60;99.90;;;;;;5096848;28;19915;-80
2023/09/03 07:07:55;;;;;;;;;;;19.60;99.90;;;;;;5084264;28;19962;-79
2023/09/03 07:10:20;;;;;;;;;;;19.60;99.90;;;;;;5095177;28;20354;-81
2023/09/03 07:12:46;;;;;;;;;;;19.70;99.90;;;;;;5093317;28;19904;-82
2023/09/03 07:15:11;;;;;;;;;;;19.70;99.90;;;;;;5084023;28;19908;-81
2023/09/03 07:17:37;;;;;;;;;;;19.70;99.90;;;;;;5082907;28;19958;-83
2023/09/03 07:20:03;;;;;;;;;;;19.80;99.90;;;;;;5096302;28;19908;-83
2023/09/03 07:22:28;;;;;;;;;;;19.80;99.90;;;;;;5096212;28;19908;-80
2023/09/03 07:24:54;;;;;;;;;;;19.90;99.90;;;;;;5091899;28;19904;-81
2023/09/03 07:27:19;;;;;;;;;;;19.90;99.90;;;;;;5091964;28;19908;-79
2023/09/03 07:29:45;;;;;;;;;;;20.00;99.90;;;;;;5094992;28;19904;-80
2023/09/03 07:32:11;;;;;;;;;;;20.00;99.90;;;;;;5083422;28;19919;-81
2023/09/03 07:34:36;;;;;;;;;;;20.00;99.90;;;;;;5096905;28;20387;-81
2023/09/03 07:37:02;;;;;;;;;;;20.00;99.90;;;;;;5094683;28;19908;-80
2023/09/03 07:39:28;;;;;;;;;;;20.00;99.90;;;;;;5088744;28;19908;-81
2023/09/03 07:41:56;;;;;;;;;;;20.00;99.90;;;;;;5088575;28;19951;-81
2023/09/03 07:44:23;;;;;;;;;;;20.10;99.90;;;;;;5079323;28;19951;-81
2023/09/03 07:46:48;;;;;;;;;;;20.20;99.90;;;;;;5084988;28;19916;-81
2023/09/03 07:49:15;;;;;;;;;;;20.30;99.90;;;;;;5093185;28;19908;-79
2023/09/03 07:51:41;;;;;;;;;;;20.30;99.90;;;;;;5086357;28;19912;-81
2023/09/03 07:54:06;;;;;;;;;;;20.40;99.90;;;;;;5076999;28;19919;-79
2023/09/03 07:56:32;;;;;;;;;;;20.40;99.90;;;;;;5082852;28;20331;-79
2023/09/03 07:58:57;;;;;;;;;;;20.50;99.90;;;;;;5078010;28;19908;-81
2023/09/03 08:01:23;;;;;;;;;;;20.50;99.90;;;;;;5081626;28;20326;-81
2023/09/03 08:03:48;;;;;;;;;;;20.60;99.90;;;;;;5079399;28;20318;-82
2023/09/03 08:06:14;;;;;;;;;;;20.70;99.90;;;;;;5090250;28;20001;-80
2023/09/03 08:08:39;;;;;;;;;;;20.80;99.90;;;;;;5081702;28;19912;-83
2023/09/03 08:11:05;;;;;;;;;;;20.90;99.90;;;;;;5094530;28;20393;-80
2023/09/03 08:13:30;;;;;;;;;;;20.80;99.90;;;;;;5095134;28;20403;-80
2023/09/03 08:15:56;;;;;;;;;;;21.00;99.90;;;;;;5095808;28;19999;-81
2023/09/03 08:18:22;;;;;;;;;;;21.20;99.90;;;;;;5095446;28;20327;-80
2023/09/03 08:20:50;;;;;;;;;;;21.40;99.90;;;;;;5088488;28;19908;-82
2023/09/03 08:23:16;;;;;;;;;;;21.50;99.90;;;;;;5075504;28;19908;-81
2023/09/03 08:25:42;;;;;;;;;;;21.60;99.90;;;;;;5086534;28;20045;-82
2023/09/03 08:28:08;;;;;;;;;;;21.70;99.90;;;;;;5080823;28;20368;-82
2023/09/03 08:30:34;;;;;;;;;;;21.90;99.90;;;;;;5095734;28;19945;-77
2023/09/03 08:32:59;;;;;;;;;;;21.90;99.90;;;;;;5094806;28;19935;-80
2023/09/03 08:35:25;;;;;;;;;;;22.00;99.90;;;;;;5089729;28;19955;-79
2023/09/03 08:37:51;;;;;;;;;;;21.90;99.90;;;;;;5095401;28;19912;-82
2023/09/03 08:40:18;;;;;;;;;;;21.90;99.90;;;;;;5095492;28;20364;-77
2023/09/03 08:42:46;;;;;;;;;;;22.00;99.90;;;;;;5095536;28;19911;-80
2023/09/03 08:45:12;;;;;;;;;;;22.10;99.90;;;;;;5093869;28;19920;-82
2023/09/03 08:47:41;;;;;;;;;;;22.10;99.90;;;;;;5092137;28;19904;-80
2023/09/03 08:50:07;;;;;;;;;;;22.30;99.90;;;;;;5094334;28;19904;-83
2023/09/03 08:52:33;;;;;;;;;;;22.40;99.90;;;;;;5090026;28;19904;-82
2023/09/03 08:55:00;;;;;;;;;;;22.50;99.90;;;;;;5077714;28;19909;-80
2023/09/03 08:57:27;;;;;;;;;;;22.70;99.90;;;;;;5092260;28;20422;-80
2023/09/03 08:59:52;;;;;;;;;;;22.70;99.90;;;;;;5091336;28;19908;-79
2023/09/03 09:02:18;;;;;;;;;;;22.80;99.90;;;;;;5072947;28;19983;-79
2023/09/03 09:04:44;;;;;;;;;;;22.80;99.90;;;;;;5089074;28;19972;-79
2023/09/03 09:07:09;;;;;;;;;;;22.80;99.90;;;;;;5097657;28;19996;-79
2023/09/03 09:09:35;;;;;;;;;;;22.90;99.90;;;;;;5084761;28;19908;-79
2023/09/03 09:12:15;;;;;;;;;;;23.10;99.90;;;;;;5098637;28;19943;-80
2023/09/03 09:14:48;;;;;;;;;;;23.20;99.90;;;;;;5098630;28;20362;-77
2023/09/03 09:17:14;;;;;;;;;;;23.50;99.90;;;;;;5098388;28;19976;-77
2023/09/03 09:19:39;;;;;;;;;;;23.70;99.90;;;;;;5086871;28;19990;-77
2023/09/03 09:22:05;;;;;;;;;;;23.70;99.90;;;;;;5084214;28;20368;-78
2023/09/03 09:24:31;;;;;;;;;;;23.80;99.90;;;;;;5093766;28;20358;-79
2023/09/03 09:27:15;;;;;;;;;;;24.00;99.90;;;;;;5089186;28;19904;-79
2023/09/03 09:29:42;;;;;;;;;;;24.20;99.90;;;;;;5085282;28;19908;-80
2023/09/03 09:32:15;;;;;;;;;;;24.20;99.90;;;;;;5098423;28;19905;-80
2023/09/03 09:34:42;;;;;;;;;;;24.10;99.90;;;;;;5098471;28;20003;-79
2023/09/03 09:37:07;;;;;;;;;;;24.40;99.90;;;;;;5096523;28;19919;-81
2023/09/03 09:39:40;;;;;;;;;;;24.50;99.90;;;;;;5098281;28;20031;-76
2023/09/03 09:42:11;;;;;;;;;;;24.40;99.90;;;;;;5094907;28;20394;-77
2023/09/03 09:44:37;;;;;;;;;;;24.30;99.90;;;;;;5093289;28;20288;-81
2023/09/03 09:47:14;;;;;;;;;;;24.20;99.90;;;;;;5090987;28;19965;-77
2023/09/03 09:49:41;;;;;;;;;;;24.00;99.90;;;;;;5084023;28;19904;-78
2023/09/03 09:52:06;;;;;;;;;;;24.00;99.90;;;;;;5087748;28;19905;-77
2023/09/03 09:54:42;;;;;;;;;;;24.10;99.90;;;;;;5097755;28;20673;-79
2023/09/03 09:57:11;;;;;;;;;;;24.30;99.90;;;;;;5087850;28;19956;-80
2023/09/03 09:59:39;;;;;;;;;;;24.30;99.90;;;;;;5096079;28;19904;-79
2023/09/03 10:02:14;;;;;;;;;;;24.40;99.90;;;;;;5078319;28;20481;-77
2023/09/03 10:04:44;;;;;;;;;;;24.60;99.90;;;;;;5095201;28;19908;-78
2023/09/03 10:07:10;;;;;;;;;;;24.80;99.90;;;;;;5097541;28;19904;-78
2023/09/03 10:09:36;;;;;;;;;;;25.00;99.90;;;;;;5083163;28;19912;-77
2023/09/03 10:12:05;;;;;;;;;;;25.30;99.90;;;;;;5088057;28;19962;-78
2023/09/03 10:14:31;;;;;;;;;;;25.40;99.90;;;;;;5087958;28;19958;-79
2023/09/03 10:16:59;;;;;;;;;;;25.60;99.90;;;;;;5096520;28;19908;-81
2023/09/03 10:19:26;;;;;;;;;;;25.70;99.90;;;;;;5097383;28;20364;-79
2023/09/03 10:21:54;;;;;;;;;;;25.90;99.90;;;;;;5087756;28;19954;-79
2023/09/03 10:24:20;;;;;;;;;;;25.80;99.90;;;;;;5087824;28;19912;-82
2023/09/03 10:26:48;;;;;;;;;;;25.60;99.90;;;;;;5091307;28;19953;-80
2023/09/03 10:29:17;;;;;;;;;;;25.40;99.90;;;;;;5096126;28;19908;-83
2023/09/03 10:31:43;;;;;;;;;;;25.50;99.90;;;;;;5097123;28;19904;-81
2023/09/03 10:34:10;;;;;;;;;;;25.80;99.90;;;;;;5095760;28;19911;-82
2023/09/03 10:36:35;;;;;;;;;;;26.00;99.90;;;;;;5097000;28;19955;-83
2023/09/03 10:39:20;;;;;;;;;;;26.10;99.90;;;;;;5091792;28;20449;-84
2023/09/03 10:41:46;;;;;;;;;;;26.20;99.90;;;;;;5089842;28;19912;-81
2023/09/03 10:44:15;;;;;;;;;;;25.90;99.90;;;;;;5075700;28;19909;-78
2023/09/03 10:46:59;;;;;;;;;;;25.80;99.90;;;;;;5094177;28;19920;-79
2023/09/03 10:49:39;;;;;;;;;;;25.60;99.90;;;;;;5086011;28;19912;-79
2023/09/03 10:52:24;;;;;;;;;;;25.70;99.90;;;;;;5083292;28;20362;-79
2023/09/03 10:55:09;;;;;;;;;;;25.70;99.90;;;;;;5092426;28;19975;-74
2023/09/03 10:57:34;;;;;;;;;;;25.60;99.90;;;;;;5090792;28;20383;-81
2023/09/03 11:00:06;;;;;;;;;;;25.60;99.90;;;;;;5091385;28;19924;-79
2023/09/03 11:02:33;;;;;;;;;;;25.50;99.90;;;;;;5091649;28;19961;-81
2023/09/03 11:05:22;;;;;;;;;;;25.60;99.90;;;;;;5096607;28;19939;-80
2023/09/03 11:07:48;;;;;;;;;;;25.80;99.90;;;;;;5092079;28;19936;-80
2023/09/03 11:10:20;;;;;;;;;;;25.90;99.90;;;;;;5083659;28;19908;-81
2023/09/03 11:12:46;;;;;;;;;;;26.00;99.90;;;;;;5090655;28;20398;-79
2023/09/03 11:15:12;;;;;;;;;;;26.10;99.90;;;;;;5099552;28;19904;-77
2023/09/03 11:17:38;;;;;;;;;;;26.00;99.90;;;;;;5096794;28;20296;-80
2023/09/03 11:20:03;;;;;;;;;;;26.00;99.90;;;;;;5096444;28;19931;-81
2023/09/03 11:22:36;;;;;;;;;;;26.10;99.90;;;;;;5083075;28;19905;-82
2023/09/03 11:25:02;;;;;;;;;;;26.00;99.90;;;;;;5095068;28;19911;-81
2023/09/03 11:27:28;;;;;;;;;;;26.10;99.90;;;;;;5095527;28;19908;-80
2023/09/03 11:30:06;;;;;;;;;;;26.20;99.90;;;;;;5096222;28;19958;-81
2023/09/03 11:32:36;;;;;;;;;;;26.20;99.90;;;;;;5091250;28;19904;-85
2023/09/03 11:35:01;;;;;;;;;;;26.30;99.90;;;;;;5094613;28;20376;-79
2023/09/03 11:37:27;;;;;;;;;;;26.40;99.90;;;;;;5095977;28;19907;-80
2023/09/03 11:39:52;;;;;;;;;;;26.50;99.90;;;;;;5096181;28;19908;-80
2023/09/03 11:42:18;;;;;;;;;;;26.70;99.90;;;;;;5095797;28;19908;-81
2023/09/03 11:44:49;;;;;;;;;;;26.80;99.90;;;;;;5095866;28;19908;-79
2023/09/03 11:47:15;;;;;;;;;;;27.00;99.90;;;;;;5095840;28;19950;-80
2023/09/03 11:49:45;;;;;;;;;;;27.30;99.90;;;;;;5095837;28;19908;-82
2023/09/03 11:52:11;;;;;;;;;;;27.40;99.90;;;;;;5095722;28;19999;-79
2023/09/03 11:54:37;;;;;;;;;;;27.60;99.90;;;;;;5091349;28;19915;-81
2023/09/03 11:57:03;;;;;;;;;;;27.50;99.90;;;;;;5095668;28;19908;-80
2023/09/03 11:59:28;;;;;;;;;;;27.30;99.40;;;;;;5095894;28;19911;-79
2023/09/03 12:01:54;;;;;;;;;;;27.20;99.90;;;;;;5095370;28;19908;-80
2023/09/03 12:04:20;;;;;;;;;;;27.20;99.90;;;;;;5095786;28;19904;-81
2023/09/03 12:06:46;;;;;;;;;;;27.30;99.90;;;;;;5091136;28;19911;-83
2023/09/03 12:09:12;;;;;;;;;;;27.40;99.90;;;;;;5082698;28;19927;-85
2023/09/03 12:11:38;;;;;;;;;;;27.40;97.10;;;;;;5094040;28;19904;-79
2023/09/03 12:14:07;;;;;;;;;;;27.50;97.80;;;;;;5094515;28;19914;-82
2023/09/03 12:16:44;;;;;;;;;;;27.50;96.90;;;;;;5094279;28;19912;-81
2023/09/03 12:19:10;;;;;;;;;;;27.50;96.80;;;;;;5089495;28;19920;-82
2023/09/03 12:21:36;;;;;;;;;;;27.50;95.70;;;;;;5089812;28;20314;-82
2023/09/03 12:24:03;;;;;;;;;;;27.50;96.20;;;;;;5090575;28;19990;-81
2023/09/03 12:26:29;;;;;;;;;;;27.60;95.40;;;;;;5095104;28;19947;-83
2023/09/03 12:28:57;;;;;;;;;;;27.50;95.30;;;;;;5095516;28;20434;-82
2023/09/03 12:31:22;;;;;;;;;;;27.70;95.20;;;;;;5095600;28;20450;-82
2023/09/03 12:33:49;;;;;;;;;;;27.70;94.70;;;;;;5094152;28;19903;-81
2023/09/03 12:36:18;;;;;;;;;;;27.70;94.70;;;;;;5082192;28;19904;-80
2023/09/03 12:38:48;;;;;;;;;;;27.70;95.00;;;;;;5095387;28;20287;-81
2023/09/03 12:41:13;;;;;;;;;;;27.70;94.50;;;;;;5099575;28;19908;-81
2023/09/03 12:43:40;;;;;;;;;;;27.70;93.20;;;;;;5093708;28;20291;-83
2023/09/03 12:46:06;;;;;;;;;;;27.70;93.50;;;;;;5099116;28;19927;-80
2023/09/03 12:48:31;;;;;;;;;;;27.70;94.00;;;;;;5097617;28;19904;-80
2023/09/03 12:50:57;;;;;;;;;;;27.80;94.90;;;;;;5099244;28;19994;-79
2023/09/03 12:53:22;;;;;;;;;;;27.90;93.30;;;;;;5093695;28;19912;-81
2023/09/03 12:55:48;;;;;;;;;;;28.00;93.60;;;;;;5097924;28;19908;-80
2023/09/03 12:58:13;;;;;;;;;;;28.10;93.30;;;;;;5099149;28;19912;-80
2023/09/03 13:00:39;;;;;;;;;;;28.10;92.10;;;;;;5098730;28;19904;-79
2023/09/03 13:03:04;;;;;;;;;;;28.10;93.00;;;;;;5098743;28;19950;-79
2023/09/03 13:05:30;;;;;;;;;;;28.20;91.70;;;;;;5098840;28;19919;-79
2023/09/03 13:07:55;;;;;;;;;;;28.10;90.90;;;;;;5098717;28;19908;-78
2023/09/03 13:10:21;;;;;;;;;;;28.30;92.30;;;;;;5097524;28;19904;-78
2023/09/03 13:12:47;;;;;;;;;;;28.30;91.40;;;;;;5098478;28;19951;-79
2023/09/03 13:15:12;;;;;;;;;;;28.30;89.60;;;;;;5091129;28;19999;-78
2023/09/03 13:17:38;;;;;;;;;;;28.40;91.70;;;;;;5077950;28;19970;-80
2023/09/03 13:20:03;;;;;;;;;;;28.50;88.90;;;;;;5097928;28;19910;-78
2023/09/03 13:22:29;;;;;;;;;;;28.50;90.80;;;;;;5087165;28;19962;-78
2023/09/03 13:24:54;;;;;;;;;;;28.60;90.30;;;;;;5090669;28;19908;-81
2023/09/03 13:27:20;;;;;;;;;;;28.40;90.80;;;;;;5084811;28;19995;-77
2023/09/03 13:29:45;;;;;;;;;;;28.30;89.60;;;;;;5090165;28;20003;-80
2023/09/03 13:32:11;;;;;;;;;;;28.20;89.60;;;;;;5086936;28;20002;-78
2023/09/03 13:34:38;;;;;;;;;;;28.00;90.20;;;;;;5092599;28;19960;-78
2023/09/03 13:37:03;;;;;;;;;;;27.80;91.10;;;;;;5084555;28;19916;-78
2023/09/03 13:39:30;;;;;;;;;;;27.60;91.80;;;;;;5085333;28;19916;-78
2023/09/03 13:41:55;;;;;;;;;;;27.70;91.40;;;;;;5085627;28;20037;-80
2023/09/03 13:44:21;;;;;;;;;;;27.70;92.60;;;;;;5088434;28;19908;-80
2023/09/03 13:46:47;;;;;;;;;;;27.80;90.30;;;;;;5096051;28;19920;-79
2023/09/03 13:49:13;;;;;;;;;;;27.80;91.10;;;;;;5098047;28;19904;-81
2023/09/03 13:51:39;;;;;;;;;;;27.70;91.30;;;;;;5083627;28;19990;-85
2023/09/03 13:54:05;;;;;;;;;;;27.70;91.00;;;;;;5093281;28;20383;-81
2023/09/03 13:56:31;;;;;;;;;;;27.60;90.70;;;;;;5096350;28;19912;-78
2023/09/03 13:58:56;;;;;;;;;;;27.60;90.20;;;;;;5077642;28;19916;-79
2023/09/03 14:01:22;;;;;;;;;;;27.60;90.50;;;;;;5096146;28;19908;-83
2023/09/03 14:03:47;;;;;;;;;;;27.70;91.00;;;;;;5097433;28;19941;-79
2023/09/03 14:06:13;;;;;;;;;;;27.60;90.10;;;;;;5084446;28;19911;-81
2023/09/03 14:08:39;;;;;;;;;;;27.50;90.40;;;;;;5096361;28;19907;-79
2023/09/03 14:11:04;;;;;;;;;;;27.50;89.00;;;;;;5096719;28;19915;-83
2023/09/03 14:13:30;;;;;;;;;;;27.50;90.30;;;;;;5094936;28;19958;-81